TimeCDT,TemperatureF,Dew PointF,Humidity,Sea Level PressureIn,VisibilityMPH,Wind Direction,Wind SpeedMPH,Gust SpeedMPH,PrecipitationIn,Events,Conditions,WindDirDegrees,DateUTC
12:53 AM,48.0,43.0,83,30.09,10.0,North,8.1,-,N/A,,Overcast,10,2012-10-06 05:53:00
1:51 AM,46.4,42.8,87,30.11,3.0,Variable,6.9,-,0.10,Rain,Heavy Rain,0,2012-10-06 06:51:00
1:53 AM,46.9,43.0,86,30.11,3.0,North,3.5,-,0.11,Rain,Heavy Rain,350,2012-10-06 06:53:00
2:06 AM,46.4,42.8,87,30.12,3.0,NNW,5.8,-,0.06,Rain,Heavy Rain,340,2012-10-06 07:06:00
2:53 AM,46.0,43.0,89,30.12,10.0,Variable,3.5,-,0.20,,Overcast,0,2012-10-06 07:53:00
3:10 AM,46.4,42.8,87,30.12,10.0,North,3.5,-,N/A,,Overcast,350,2012-10-06 08:10:00
3:37 AM,46.4,44.6,93,30.12,10.0,North,3.5,-,N/A,,Overcast,10,2012-10-06 08:37:00
3:53 AM,46.9,42.1,83,30.12,10.0,North,8.1,-,N/A,,Overcast,360,2012-10-06 08:53:00
4:00 AM,46.4,42.8,87,30.13,10.0,North,5.8,-,N/A,,Overcast,360,2012-10-06 09:00:00
4:28 AM,46.4,42.8,87,30.14,10.0,North,8.1,-,N/A,,Overcast,360,2012-10-06 09:28:00
4:53 AM,46.0,42.1,86,30.14,10.0,North,4.6,-,N/A,,Overcast,360,2012-10-06 09:53:00
5:14 AM,46.4,39.2,76,30.16,10.0,North,4.6,-,N/A,,Overcast,10,2012-10-06 10:14:00
5:43 AM,46.4,41.0,81,30.16,10.0,North,6.9,-,N/A,,Overcast,350,2012-10-06 10:43:00
5:53 AM,46.0,41.0,83,30.17,10.0,North,8.1,-,N/A,,Overcast,350,2012-10-06 10:53:00
6:53 AM,44.1,39.0,82,30.18,10.0,North,4.6,-,N/A,,Clear,360,2012-10-06 11:53:00
7:53 AM,45.0,39.0,80,30.21,10.0,Variable,5.8,-,N/A,,Clear,0,2012-10-06 12:53:00
8:31 AM,46.4,39.2,76,30.22,10.0,Variable,5.8,-,N/A,,Mostly Cloudy,0,2012-10-06 13:31:00
8:39 AM,46.4,39.2,76,30.22,10.0,NNW,6.9,-,N/A,,Partly Cloudy,340,2012-10-06 13:39:00
8:53 AM,46.9,39.0,74,30.22,10.0,NNE,6.9,-,N/A,,Partly Cloudy,20,2012-10-06 13:53:00
9:53 AM,50.0,37.9,63,30.22,10.0,Variable,6.9,-,N/A,,Clear,0,2012-10-06 14:53:00
10:53 AM,53.1,37.9,57,30.19,10.0,NE,9.2,-,N/A,,Clear,50,2012-10-06 15:53:00
11:53 AM,55.9,36.0,47,30.18,10.0,North,8.1,-,N/A,,Clear,350,2012-10-06 16:53:00
12:53 PM,57.9,34.0,41,30.15,10.0,North,5.8,-,N/A,,Clear,10,2012-10-06 17:53:00
1:53 PM,60.1,33.1,36,30.13,10.0,Variable,4.6,-,N/A,,Clear,0,2012-10-06 18:53:00
2:53 PM,60.1,33.1,36,30.13,10.0,Variable,4.6,-,N/A,,Clear,0,2012-10-06 19:53:00
3:53 PM,61.0,30.9,32,30.12,10.0,NNW,4.6,-,N/A,,Clear,330,2012-10-06 20:53:00
4:53 PM,57.9,30.9,36,30.13,10.0,NNW,8.1,-,N/A,,Clear,330,2012-10-06 21:53:00
5:53 PM,57.0,30.9,37,30.13,10.0,North,4.6,-,N/A,,Partly Cloudy,350,2012-10-06 22:53:00
6:53 PM,55.0,32.0,42,30.12,10.0,North,4.6,-,N/A,,Mostly Cloudy,350,2012-10-06 23:53:00
7:53 PM,54.0,34.0,47,30.15,10.0,NNW,5.8,-,N/A,,Overcast,340,2012-10-07 00:53:00
8:53 PM,53.1,35.1,50,30.17,10.0,NNW,4.6,-,N/A,,Overcast,330,2012-10-07 01:53:00
9:53 PM,52.0,35.1,53,30.17,10.0,NNW,8.1,-,0.00,,Overcast,340,2012-10-07 02:53:00
10:53 PM,51.1,36.0,56,30.15,10.0,North,5.8,-,N/A,,Overcast,360,2012-10-07 03:53:00
11:53 PM,51.1,36.0,56,30.14,10.0,North,5.8,-,N/A,,Overcast,350,2012-10-07 04:53:00